sensor_id;sensor_type;location;lat;lon;timestamp;temperature;humidity
71128;SHT30;59249;59.736;30.568;2024-03-07T00:02:05;-0.93;81.57
71128;SHT30;59249;59.736;30.568;2024-03-07T00:04:35;-0.81;81.60
71128;SHT30;59249;59.736;30.568;2024-03-07T00:07:06;-0.92;81.90
71128;SHT30;59249;59.736;30.568;2024-03-07T00:09:53;-0.91;81.64
71128;SHT30;59249;59.736;30.568;2024-03-07T00:12:30;-0.79;81.62
71128;SHT30;59249;59.736;30.568;2024-03-07T00:15:01;-0.99;81.41
71128;SHT30;59249;59.736;30.568;2024-03-07T00:17:32;-1.10;81.74
71128;SHT30;59249;59.736;30.568;2024-03-07T00:20:04;-0.98;81.76
71128;SHT30;59249;59.736;30.568;2024-03-07T00:22:37;-0.90;81.78
71128;SHT30;59249;59.736;30.568;2024-03-07T00:25:15;-0.82;81.64
71128;SHT30;59249;59.736;30.568;2024-03-07T00:27:50;-0.75;81.38
71128;SHT30;59249;59.736;30.568;2024-03-07T00:30:21;-0.87;81.66
71128;SHT30;59249;59.736;30.568;2024-03-07T00:32:50;-0.94;81.66
71128;SHT30;59249;59.736;30.568;2024-03-07T00:35:21;-0.85;81.70
71128;SHT30;59249;59.736;30.568;2024-03-07T00:37:54;-0.80;81.59
71128;SHT30;59249;59.736;30.568;2024-03-07T00:40:25;-0.81;81.72
71128;SHT30;59249;59.736;30.568;2024-03-07T00:43:03;-0.79;81.39
71128;SHT30;59249;59.736;30.568;2024-03-07T00:45:36;-0.91;81.52
71128;SHT30;59249;59.736;30.568;2024-03-07T00:48:16;-1.04;81.66
71128;SHT30;59249;59.736;30.568;2024-03-07T00:50:46;-1.00;81.87
71128;SHT30;59249;59.736;30.568;2024-03-07T00:53:21;-1.02;81.89
71128;SHT30;59249;59.736;30.568;2024-03-07T00:55:58;-0.99;81.81
71128;SHT30;59249;59.736;30.568;2024-03-07T00:58:36;-1.02;81.85
71128;SHT30;59249;59.736;30.568;2024-03-07T01:01:06;-0.96;81.73
71128;SHT30;59249;59.736;30.568;2024-03-07T01:03:36;-0.83;81.87
71128;SHT30;59249;59.736;30.568;2024-03-07T01:06:05;-0.95;81.60
71128;SHT30;59249;59.736;30.568;2024-03-07T01:08:35;-1.08;81.55
71128;SHT30;59249;59.736;30.568;2024-03-07T01:11:05;-0.89;81.50
71128;SHT30;59249;59.736;30.568;2024-03-07T01:13:41;-1.11;81.39
71128;SHT30;59249;59.736;30.568;2024-03-07T01:16:10;-1.05;81.42
71128;SHT30;59249;59.736;30.568;2024-03-07T01:18:40;-1.03;81.47
71128;SHT30;59249;59.736;30.568;2024-03-07T01:21:11;-0.99;81.43
71128;SHT30;59249;59.736;30.568;2024-03-07T01:23:45;-1.05;81.26
71128;SHT30;59249;59.736;30.568;2024-03-07T01:26:19;-1.09;81.35
71128;SHT30;59249;59.736;30.568;2024-03-07T01:28:55;-1.08;81.47
71128;SHT30;59249;59.736;30.568;2024-03-07T01:31:24;-1.06;81.52
71128;SHT30;59249;59.736;30.568;2024-03-07T01:34:01;-1.01;81.41
71128;SHT30;59249;59.736;30.568;2024-03-07T01:36:31;-1.11;81.20
71128;SHT30;59249;59.736;30.568;2024-03-07T01:39:07;-1.08;81.27
71128;SHT30;59249;59.736;30.568;2024-03-07T01:41:41;-1.11;81.20
71128;SHT30;59249;59.736;30.568;2024-03-07T01:44:18;-1.12;80.89
71128;SHT30;59249;59.736;30.568;2024-03-07T01:46:49;-1.14;81.16
71128;SHT30;59249;59.736;30.568;2024-03-07T01:49:19;-1.06;80.95
71128;SHT30;59249;59.736;30.568;2024-03-07T01:51:50;-1.08;80.87
71128;SHT30;59249;59.736;30.568;2024-03-07T01:54:19;-1.11;80.90
71128;SHT30;59249;59.736;30.568;2024-03-07T01:56:49;-1.31;81.14
71128;SHT30;59249;59.736;30.568;2024-03-07T01:59:22;-1.31;81.46
71128;SHT30;59249;59.736;30.568;2024-03-07T02:01:52;-1.31;81.56
71128;SHT30;59249;59.736;30.568;2024-03-07T02:04:39;-1.30;81.62
71128;SHT30;59249;59.736;30.568;2024-03-07T02:07:11;-1.24;81.42
71128;SHT30;59249;59.736;30.568;2024-03-07T02:09:41;-1.27;81.40
71128;SHT30;59249;59.736;30.568;2024-03-07T02:12:13;-1.19;81.39
71128;SHT30;59249;59.736;30.568;2024-03-07T02:14:43;-1.19;81.29
71128;SHT30;59249;59.736;30.568;2024-03-07T02:17:13;-1.28;81.36
71128;SHT30;59249;59.736;30.568;2024-03-07T02:19:45;-1.22;81.46
71128;SHT30;59249;59.736;30.568;2024-03-07T02:22:22;-1.13;81.46
71128;SHT30;59249;59.736;30.568;2024-03-07T02:25:05;-1.08;81.23
71128;SHT30;59249;59.736;30.568;2024-03-07T02:27:37;-1.17;81.08
71128;SHT30;59249;59.736;30.568;2024-03-07T02:30:09;-1.13;81.00
71128;SHT30;59249;59.736;30.568;2024-03-07T02:32:45;-1.02;80.58
71128;SHT30;59249;59.736;30.568;2024-03-07T02:35:19;-1.08;80.62
71128;SHT30;59249;59.736;30.568;2024-03-07T02:37:50;-1.15;80.80
71128;SHT30;59249;59.736;30.568;2024-03-07T02:40:39;-1.10;80.97
71128;SHT30;59249;59.736;30.568;2024-03-07T02:43:21;-1.04;80.77
71128;SHT30;59249;59.736;30.568;2024-03-07T02:45:56;-1.13;80.65
71128;SHT30;59249;59.736;30.568;2024-03-07T02:48:25;-1.05;80.68
71128;SHT30;59249;59.736;30.568;2024-03-07T02:51:04;-1.12;80.78
71128;SHT30;59249;59.736;30.568;2024-03-07T02:53:37;-1.20;80.92
71128;SHT30;59249;59.736;30.568;2024-03-07T02:56:14;-1.30;80.99
71128;SHT30;59249;59.736;30.568;2024-03-07T02:58:49;-1.26;80.92
71128;SHT30;59249;59.736;30.568;2024-03-07T03:01:26;-1.22;80.87
71128;SHT30;59249;59.736;30.568;2024-03-07T03:03:57;-1.32;80.95
71128;SHT30;59249;59.736;30.568;2024-03-07T03:06:27;-1.29;80.90
71128;SHT30;59249;59.736;30.568;2024-03-07T03:09:02;-1.19;80.61
71128;SHT30;59249;59.736;30.568;2024-03-07T03:11:32;-1.15;80.09
71128;SHT30;59249;59.736;30.568;2024-03-07T03:14:12;-1.22;80.02
71128;SHT30;59249;59.736;30.568;2024-03-07T03:16:43;-1.21;80.35
71128;SHT30;59249;59.736;30.568;2024-03-07T03:19:19;-1.31;80.37
71128;SHT30;59249;59.736;30.568;2024-03-07T03:21:55;-1.40;80.70
71128;SHT30;59249;59.736;30.568;2024-03-07T03:24:37;-1.36;80.84
71128;SHT30;59249;59.736;30.568;2024-03-07T03:27:10;-1.34;80.81
71128;SHT30;59249;59.736;30.568;2024-03-07T03:29:49;-1.24;80.76
71128;SHT30;59249;59.736;30.568;2024-03-07T03:32:24;-1.25;80.73
71128;SHT30;59249;59.736;30.568;2024-03-07T03:35:15;-1.24;80.70
71128;SHT30;59249;59.736;30.568;2024-03-07T03:37:46;-1.25;80.51
71128;SHT30;59249;59.736;30.568;2024-03-07T03:40:17;-1.37;80.84
71128;SHT30;59249;59.736;30.568;2024-03-07T03:43:00;-1.34;80.86
71128;SHT30;59249;59.736;30.568;2024-03-07T03:45:34;-1.27;81.07
71128;SHT30;59249;59.736;30.568;2024-03-07T03:48:19;-1.29;80.85
71128;SHT30;59249;59.736;30.568;2024-03-07T03:50:59;-1.29;80.91
71128;SHT30;59249;59.736;30.568;2024-03-07T03:53:30;-1.14;80.70
71128;SHT30;59249;59.736;30.568;2024-03-07T03:56:09;-1.18;80.68
71128;SHT30;59249;59.736;30.568;2024-03-07T03:58:58;-1.05;80.65
71128;SHT30;59249;59.736;30.568;2024-03-07T04:01:30;-1.29;80.68
71128;SHT30;59249;59.736;30.568;2024-03-07T04:04:01;-1.25;80.79
71128;SHT30;59249;59.736;30.568;2024-03-07T04:06:35;-1.15;80.84
71128;SHT30;59249;59.736;30.568;2024-03-07T04:09:26;-1.14;80.69
71128;SHT30;59249;59.736;30.568;2024-03-07T04:12:01;-1.26;81.07
71128;SHT30;59249;59.736;30.568;2024-03-07T04:14:31;-1.30;80.98
71128;SHT30;59249;59.736;30.568;2024-03-07T04:17:01;-1.22;80.82
71128;SHT30;59249;59.736;30.568;2024-03-07T04:19:34;-1.17;80.84
71128;SHT30;59249;59.736;30.568;2024-03-07T04:22:05;-1.03;80.27
71128;SHT30;59249;59.736;30.568;2024-03-07T04:24:37;-1.15;80.43
71128;SHT30;59249;59.736;30.568;2024-03-07T04:27:17;-1.20;80.17
71128;SHT30;59249;59.736;30.568;2024-03-07T04:29:50;-1.23;80.24
71128;SHT30;59249;59.736;30.568;2024-03-07T04:32:40;-1.27;80.28
71128;SHT30;59249;59.736;30.568;2024-03-07T04:35:20;-1.27;80.05
71128;SHT30;59249;59.736;30.568;2024-03-07T04:38:38;-1.36;80.20
71128;SHT30;59249;59.736;30.568;2024-03-07T04:41:17;-1.40;80.48
71128;SHT30;59249;59.736;30.568;2024-03-07T04:44:16;-1.53;80.95
71128;SHT30;59249;59.736;30.568;2024-03-07T04:46:52;-1.48;81.13
71128;SHT30;59249;59.736;30.568;2024-03-07T04:49:23;-1.46;80.95
71128;SHT30;59249;59.736;30.568;2024-03-07T04:51:53;-1.55;81.05
71128;SHT30;59249;59.736;30.568;2024-03-07T04:54:27;-1.51;81.04
71128;SHT30;59249;59.736;30.568;2024-03-07T04:56:56;-1.43;81.00
71128;SHT30;59249;59.736;30.568;2024-03-07T04:59:28;-1.36;80.74
71128;SHT30;59249;59.736;30.568;2024-03-07T05:01:58;-1.33;80.60
71128;SHT30;59249;59.736;30.568;2024-03-07T05:04:34;-1.60;80.82
71128;SHT30;59249;59.736;30.568;2024-03-07T05:07:08;-1.57;81.13
71128;SHT30;59249;59.736;30.568;2024-03-07T05:09:55;-1.52;81.12
71128;SHT30;59249;59.736;30.568;2024-03-07T05:12:27;-1.40;80.93
71128;SHT30;59249;59.736;30.568;2024-03-07T05:14:57;-1.36;80.93
71128;SHT30;59249;59.736;30.568;2024-03-07T05:17:30;-1.29;80.89
71128;SHT30;59249;59.736;30.568;2024-03-07T05:20:02;-1.33;80.88
71128;SHT30;59249;59.736;30.568;2024-03-07T05:22:48;-1.11;80.67
71128;SHT30;59249;59.736;30.568;2024-03-07T05:25:25;-1.21;80.56
71128;SHT30;59249;59.736;30.568;2024-03-07T05:27:58;-1.15;80.56
71128;SHT30;59249;59.736;30.568;2024-03-07T05:30:33;-1.27;80.72
71128;SHT30;59249;59.736;30.568;2024-03-07T05:33:10;-1.33;80.56
71128;SHT30;59249;59.736;30.568;2024-03-07T05:35:43;-1.34;80.57
71128;SHT30;59249;59.736;30.568;2024-03-07T05:38:14;-1.31;80.74
71128;SHT30;59249;59.736;30.568;2024-03-07T05:40:43;-1.48;80.56
71128;SHT30;59249;59.736;30.568;2024-03-07T05:43:19;-1.43;80.57
71128;SHT30;59249;59.736;30.568;2024-03-07T05:45:49;-1.24;80.23
71128;SHT30;59249;59.736;30.568;2024-03-07T05:48:19;-1.24;79.77
71128;SHT30;59249;59.736;30.568;2024-03-07T05:50:48;-1.30;79.86
71128;SHT30;59249;59.736;30.568;2024-03-07T05:53:19;-1.24;79.97
71128;SHT30;59249;59.736;30.568;2024-03-07T05:56:03;-1.33;80.31
71128;SHT30;59249;59.736;30.568;2024-03-07T05:58:34;-1.36;80.33
71128;SHT30;59249;59.736;30.568;2024-03-07T06:01:07;-1.46;80.51
71128;SHT30;59249;59.736;30.568;2024-03-07T06:03:44;-1.34;80.30
71128;SHT30;59249;59.736;30.568;2024-03-07T06:06:45;-1.31;80.20
71128;SHT30;59249;59.736;30.568;2024-03-07T06:09:16;-1.30;80.25
71128;SHT30;59249;59.736;30.568;2024-03-07T06:11:54;-1.28;80.00
71128;SHT30;59249;59.736;30.568;2024-03-07T06:14:24;-1.08;79.66
71128;SHT30;59249;59.736;30.568;2024-03-07T06:16:58;-1.18;79.38
71128;SHT30;59249;59.736;30.568;2024-03-07T06:19:28;-1.20;79.57
71128;SHT30;59249;59.736;30.568;2024-03-07T06:21:58;-1.12;79.54
71128;SHT30;59249;59.736;30.568;2024-03-07T06:24:31;-1.15;79.47
71128;SHT30;59249;59.736;30.568;2024-03-07T06:27:02;-1.08;79.37
71128;SHT30;59249;59.736;30.568;2024-03-07T06:29:37;-0.99;78.89
71128;SHT30;59249;59.736;30.568;2024-03-07T06:32:10;-1.01;79.09
71128;SHT30;59249;59.736;30.568;2024-03-07T06:34:44;-0.90;79.10
71128;SHT30;59249;59.736;30.568;2024-03-07T06:37:32;-0.92;79.08
71128;SHT30;59249;59.736;30.568;2024-03-07T06:40:04;-0.99;79.07
71128;SHT30;59249;59.736;30.568;2024-03-07T06:42:39;-0.85;78.96
71128;SHT30;59249;59.736;30.568;2024-03-07T06:45:26;-1.00;78.84
71128;SHT30;59249;59.736;30.568;2024-03-07T06:47:57;-0.94;78.93
71128;SHT30;59249;59.736;30.568;2024-03-07T06:50:26;-1.04;78.88
71128;SHT30;59249;59.736;30.568;2024-03-07T06:53:07;-0.99;78.87
71128;SHT30;59249;59.736;30.568;2024-03-07T06:55:43;-0.99;78.74
71128;SHT30;59249;59.736;30.568;2024-03-07T06:58:13;-0.87;78.75
71128;SHT30;59249;59.736;30.568;2024-03-07T07:00:42;-0.92;78.69
71128;SHT30;59249;59.736;30.568;2024-03-07T07:03:27;-1.04;78.47
71128;SHT30;59249;59.736;30.568;2024-03-07T07:05:58;-0.95;78.20
71128;SHT30;59249;59.736;30.568;2024-03-07T07:08:28;-0.70;77.83
71128;SHT30;59249;59.736;30.568;2024-03-07T07:11:04;-0.71;77.50
71128;SHT30;59249;59.736;30.568;2024-03-07T07:13:38;-0.83;77.41
71128;SHT30;59249;59.736;30.568;2024-03-07T07:16:09;-0.71;77.70
71128;SHT30;59249;59.736;30.568;2024-03-07T07:18:42;-0.65;77.67
71128;SHT30;59249;59.736;30.568;2024-03-07T07:21:15;-0.59;77.59
71128;SHT30;59249;59.736;30.568;2024-03-07T07:23:48;-0.47;77.24
71128;SHT30;59249;59.736;30.568;2024-03-07T07:26:23;-0.48;76.94
71128;SHT30;59249;59.736;30.568;2024-03-07T07:28:56;-0.56;77.23
71128;SHT30;59249;59.736;30.568;2024-03-07T07:31:27;-0.49;77.28
71128;SHT30;59249;59.736;30.568;2024-03-07T07:34:02;-0.52;77.27
71128;SHT30;59249;59.736;30.568;2024-03-07T07:36:40;-0.43;77.02
71128;SHT30;59249;59.736;30.568;2024-03-07T07:39:09;-0.57;77.18
71128;SHT30;59249;59.736;30.568;2024-03-07T07:41:44;-0.50;77.02
71128;SHT30;59249;59.736;30.568;2024-03-07T07:44:13;-0.54;76.96
71128;SHT30;59249;59.736;30.568;2024-03-07T07:46:42;-0.52;77.06
71128;SHT30;59249;59.736;30.568;2024-03-07T07:49:13;-0.44;76.34
71128;SHT30;59249;59.736;30.568;2024-03-07T07:51:44;-0.46;76.27
71128;SHT30;59249;59.736;30.568;2024-03-07T07:54:13;-0.48;76.65
71128;SHT30;59249;59.736;30.568;2024-03-07T07:56:44;-0.33;76.80
71128;SHT30;59249;59.736;30.568;2024-03-07T07:59:22;-0.40;76.84
71128;SHT30;59249;59.736;30.568;2024-03-07T08:01:54;-0.34;76.60
71128;SHT30;59249;59.736;30.568;2024-03-07T08:04:26;-0.38;76.64
71128;SHT30;59249;59.736;30.568;2024-03-07T08:06:58;-0.50;76.39
71128;SHT30;59249;59.736;30.568;2024-03-07T08:09:29;-0.33;75.99
71128;SHT30;59249;59.736;30.568;2024-03-07T08:11:59;-0.27;75.90
71128;SHT30;59249;59.736;30.568;2024-03-07T08:14:33;-0.13;75.88
71128;SHT30;59249;59.736;30.568;2024-03-07T08:17:04;-0.09;74.89
71128;SHT30;59249;59.736;30.568;2024-03-07T08:19:37;-0.06;74.60
71128;SHT30;59249;59.736;30.568;2024-03-07T08:22:08;-0.08;74.95
71128;SHT30;59249;59.736;30.568;2024-03-07T08:24:37;0.06;74.99
71128;SHT30;59249;59.736;30.568;2024-03-07T08:27:11;0.18;74.62
71128;SHT30;59249;59.736;30.568;2024-03-07T08:29:40;0.13;74.24
71128;SHT30;59249;59.736;30.568;2024-03-07T08:32:09;0.31;73.30
71128;SHT30;59249;59.736;30.568;2024-03-07T08:34:40;0.08;73.59
71128;SHT30;59249;59.736;30.568;2024-03-07T08:37:09;0.10;74.32
71128;SHT30;59249;59.736;30.568;2024-03-07T08:39:47;0.09;74.32
71128;SHT30;59249;59.736;30.568;2024-03-07T08:42:18;0.11;74.63
71128;SHT30;59249;59.736;30.568;2024-03-07T08:44:49;0.13;74.40
71128;SHT30;59249;59.736;30.568;2024-03-07T08:47:20;0.21;74.50
71128;SHT30;59249;59.736;30.568;2024-03-07T08:50:14;0.31;74.31
71128;SHT30;59249;59.736;30.568;2024-03-07T08:52:48;0.48;73.79
71128;SHT30;59249;59.736;30.568;2024-03-07T08:55:21;0.54;73.15
71128;SHT30;59249;59.736;30.568;2024-03-07T08:57:54;0.46;73.18
71128;SHT30;59249;59.736;30.568;2024-03-07T09:00:23;0.46;73.68
71128;SHT30;59249;59.736;30.568;2024-03-07T09:02:56;0.36;73.73
71128;SHT30;59249;59.736;30.568;2024-03-07T09:05:31;0.41;73.98
71128;SHT30;59249;59.736;30.568;2024-03-07T09:08:02;0.48;73.98
71128;SHT30;59249;59.736;30.568;2024-03-07T09:10:35;0.50;73.77
71128;SHT30;59249;59.736;30.568;2024-03-07T09:13:05;0.50;74.00
71128;SHT30;59249;59.736;30.568;2024-03-07T09:15:44;0.41;75.18
71128;SHT30;59249;59.736;30.568;2024-03-07T09:18:23;0.53;75.52
71128;SHT30;59249;59.736;30.568;2024-03-07T09:20:55;0.65;75.02
71128;SHT30;59249;59.736;30.568;2024-03-07T09:23:25;0.57;74.30
71128;SHT30;59249;59.736;30.568;2024-03-07T09:25:54;0.64;74.06
71128;SHT30;59249;59.736;30.568;2024-03-07T09:28:23;0.76;74.24
71128;SHT30;59249;59.736;30.568;2024-03-07T09:30:52;0.96;73.80
71128;SHT30;59249;59.736;30.568;2024-03-07T09:33:23;0.98;73.47
71128;SHT30;59249;59.736;30.568;2024-03-07T09:35:57;1.01;73.51
71128;SHT30;59249;59.736;30.568;2024-03-07T09:38:30;1.07;73.12
71128;SHT30;59249;59.736;30.568;2024-03-07T09:41:02;0.98;72.98
71128;SHT30;59249;59.736;30.568;2024-03-07T09:43:34;1.12;73.46
71128;SHT30;59249;59.736;30.568;2024-03-07T09:46:12;1.31;72.70
71128;SHT30;59249;59.736;30.568;2024-03-07T09:48:41;1.20;72.51
71128;SHT30;59249;59.736;30.568;2024-03-07T09:51:16;1.05;72.64
71128;SHT30;59249;59.736;30.568;2024-03-07T09:53:50;1.11;73.01
71128;SHT30;59249;59.736;30.568;2024-03-07T09:56:22;1.27;72.79
71128;SHT30;59249;59.736;30.568;2024-03-07T09:59:06;1.15;72.69
71128;SHT30;59249;59.736;30.568;2024-03-07T10:01:46;1.28;72.29
71128;SHT30;59249;59.736;30.568;2024-03-07T10:04:30;1.17;72.53
71128;SHT30;59249;59.736;30.568;2024-03-07T10:07:02;1.16;72.68
71128;SHT30;59249;59.736;30.568;2024-03-07T10:09:32;1.34;72.17
71128;SHT30;59249;59.736;30.568;2024-03-07T10:12:07;1.19;72.51
71128;SHT30;59249;59.736;30.568;2024-03-07T10:14:38;1.31;72.48
71128;SHT30;59249;59.736;30.568;2024-03-07T10:17:07;1.28;72.32
71128;SHT30;59249;59.736;30.568;2024-03-07T10:19:37;1.39;72.30
71128;SHT30;59249;59.736;30.568;2024-03-07T10:22:09;1.36;72.26
71128;SHT30;59249;59.736;30.568;2024-03-07T10:24:38;1.46;71.86
71128;SHT30;59249;59.736;30.568;2024-03-07T10:27:12;1.37;72.54
71128;SHT30;59249;59.736;30.568;2024-03-07T10:29:41;1.34;73.49
71128;SHT30;59249;59.736;30.568;2024-03-07T10:32:12;1.36;73.21
71128;SHT30;59249;59.736;30.568;2024-03-07T10:35:09;1.35;73.33
71128;SHT30;59249;59.736;30.568;2024-03-07T10:37:58;1.30;72.91
71128;SHT30;59249;59.736;30.568;2024-03-07T10:41:02;1.14;72.49
71128;SHT30;59249;59.736;30.568;2024-03-07T10:43:56;1.33;73.16
71128;SHT30;59249;59.736;30.568;2024-03-07T10:46:27;1.27;72.70
71128;SHT30;59249;59.736;30.568;2024-03-07T10:48:59;1.29;72.66
71128;SHT30;59249;59.736;30.568;2024-03-07T10:51:40;1.33;72.81
71128;SHT30;59249;59.736;30.568;2024-03-07T10:54:27;1.38;72.29
71128;SHT30;59249;59.736;30.568;2024-03-07T10:57:11;1.24;72.93
71128;SHT30;59249;59.736;30.568;2024-03-07T10:59:50;1.07;73.26
71128;SHT30;59249;59.736;30.568;2024-03-07T11:02:31;1.03;73.84
71128;SHT30;59249;59.736;30.568;2024-03-07T11:05:04;1.06;74.14
71128;SHT30;59249;59.736;30.568;2024-03-07T11:07:43;0.89;73.76
71128;SHT30;59249;59.736;30.568;2024-03-07T11:10:15;0.81;73.77
71128;SHT30;59249;59.736;30.568;2024-03-07T11:12:46;0.81;73.62
71128;SHT30;59249;59.736;30.568;2024-03-07T11:15:21;1.01;73.33
71128;SHT30;59249;59.736;30.568;2024-03-07T11:17:57;0.87;73.39
71128;SHT30;59249;59.736;30.568;2024-03-07T11:20:34;0.97;73.65
71128;SHT30;59249;59.736;30.568;2024-03-07T11:23:27;0.91;73.47
71128;SHT30;59249;59.736;30.568;2024-03-07T11:26:04;0.70;73.56
71128;SHT30;59249;59.736;30.568;2024-03-07T11:28:37;0.75;73.61
71128;SHT30;59249;59.736;30.568;2024-03-07T11:31:12;0.69;73.69
71128;SHT30;59249;59.736;30.568;2024-03-07T11:33:42;0.64;73.97
71128;SHT30;59249;59.736;30.568;2024-03-07T11:36:45;0.55;73.87
71128;SHT30;59249;59.736;30.568;2024-03-07T11:39:39;0.55;74.30
71128;SHT30;59249;59.736;30.568;2024-03-07T11:42:24;0.57;74.17
71128;SHT30;59249;59.736;30.568;2024-03-07T11:44:59;0.50;74.19
71128;SHT30;59249;59.736;30.568;2024-03-07T11:47:37;0.49;74.31
71128;SHT30;59249;59.736;30.568;2024-03-07T11:50:10;0.44;74.45
71128;SHT30;59249;59.736;30.568;2024-03-07T11:52:40;0.34;74.34
71128;SHT30;59249;59.736;30.568;2024-03-07T11:55:12;0.35;74.64
71128;SHT30;59249;59.736;30.568;2024-03-07T11:57:45;0.35;74.42
71128;SHT30;59249;59.736;30.568;2024-03-07T12:00:17;0.41;74.61
71128;SHT30;59249;59.736;30.568;2024-03-07T12:02:47;0.48;74.92
71128;SHT30;59249;59.736;30.568;2024-03-07T12:05:17;0.45;74.83
71128;SHT30;59249;59.736;30.568;2024-03-07T12:07:47;0.35;74.94
71128;SHT30;59249;59.736;30.568;2024-03-07T12:10:17;0.31;75.07
71128;SHT30;59249;59.736;30.568;2024-03-07T12:12:54;0.27;74.94
71128;SHT30;59249;59.736;30.568;2024-03-07T12:15:24;0.26;75.52
71128;SHT30;59249;59.736;30.568;2024-03-07T12:17:53;0.36;75.64
71128;SHT30;59249;59.736;30.568;2024-03-07T12:20:24;0.34;75.64
71128;SHT30;59249;59.736;30.568;2024-03-07T12:23:01;0.48;75.56
71128;SHT30;59249;59.736;30.568;2024-03-07T12:25:32;0.36;75.32
71128;SHT30;59249;59.736;30.568;2024-03-07T12:28:06;0.28;75.47
71128;SHT30;59249;59.736;30.568;2024-03-07T12:30:50;0.25;75.97
71128;SHT30;59249;59.736;30.568;2024-03-07T12:33:21;0.22;75.66
71128;SHT30;59249;59.736;30.568;2024-03-07T12:35:54;0.26;75.97
71128;SHT30;59249;59.736;30.568;2024-03-07T12:38:34;0.22;76.35
71128;SHT30;59249;59.736;30.568;2024-03-07T12:41:09;0.29;75.76
71128;SHT30;59249;59.736;30.568;2024-03-07T12:43:45;0.29;75.87
71128;SHT30;59249;59.736;30.568;2024-03-07T12:46:15;0.27;75.62
71128;SHT30;59249;59.736;30.568;2024-03-07T12:48:46;0.23;75.73
71128;SHT30;59249;59.736;30.568;2024-03-07T12:51:17;0.17;76.07
71128;SHT30;59249;59.736;30.568;2024-03-07T12:53:52;0.22;76.02
71128;SHT30;59249;59.736;30.568;2024-03-07T12:56:21;0.15;76.15
71128;SHT30;59249;59.736;30.568;2024-03-07T12:58:52;0.09;76.42
71128;SHT30;59249;59.736;30.568;2024-03-07T13:01:22;0.01;76.53
71128;SHT30;59249;59.736;30.568;2024-03-07T13:03:52;-0.02;76.67
71128;SHT30;59249;59.736;30.568;2024-03-07T13:06:23;-0.06;76.78
71128;SHT30;59249;59.736;30.568;2024-03-07T13:09:00;0.03;76.74
71128;SHT30;59249;59.736;30.568;2024-03-07T13:11:30;-0.03;77.05
71128;SHT30;59249;59.736;30.568;2024-03-07T13:14:03;-0.03;77.09
71128;SHT30;59249;59.736;30.568;2024-03-07T13:16:33;0.09;77.42
71128;SHT30;59249;59.736;30.568;2024-03-07T13:19:02;0.06;77.33
71128;SHT30;59249;59.736;30.568;2024-03-07T13:21:33;0.01;77.01
71128;SHT30;59249;59.736;30.568;2024-03-07T13:24:04;-0.01;77.50
71128;SHT30;59249;59.736;30.568;2024-03-07T13:26:42;0.02;77.60
71128;SHT30;59249;59.736;30.568;2024-03-07T13:29:18;-0.08;77.63
71128;SHT30;59249;59.736;30.568;2024-03-07T13:31:57;0.01;77.35
71128;SHT30;59249;59.736;30.568;2024-03-07T13:34:27;-0.04;77.43
71128;SHT30;59249;59.736;30.568;2024-03-07T13:36:58;-0.06;77.81
71128;SHT30;59249;59.736;30.568;2024-03-07T13:39:29;-0.19;77.78
71128;SHT30;59249;59.736;30.568;2024-03-07T13:42:01;-0.06;77.85
71128;SHT30;59249;59.736;30.568;2024-03-07T13:44:38;-0.17;77.58
71128;SHT30;59249;59.736;30.568;2024-03-07T13:47:07;-0.15;77.73
71128;SHT30;59249;59.736;30.568;2024-03-07T13:49:37;-0.17;77.66
71128;SHT30;59249;59.736;30.568;2024-03-07T13:52:06;-0.18;77.85
71128;SHT30;59249;59.736;30.568;2024-03-07T13:54:55;-0.12;77.81
71128;SHT30;59249;59.736;30.568;2024-03-07T13:57:34;-0.18;77.83
71128;SHT30;59249;59.736;30.568;2024-03-07T14:00:38;-0.26;77.96
71128;SHT30;59249;59.736;30.568;2024-03-07T14:07:27;-0.32;77.99
71128;SHT30;59249;59.736;30.568;2024-03-07T14:10:29;-0.48;78.27
71128;SHT30;59249;59.736;30.568;2024-03-07T14:13:34;-0.45;78.40
71128;SHT30;59249;59.736;30.568;2024-03-07T14:16:43;-0.50;78.49
71128;SHT30;59249;59.736;30.568;2024-03-07T14:20:23;-0.50;78.45
71128;SHT30;59249;59.736;30.568;2024-03-07T14:23:30;-0.33;78.59
71128;SHT30;59249;59.736;30.568;2024-03-07T14:27:04;-0.48;78.48
71128;SHT30;59249;59.736;30.568;2024-03-07T14:29:47;-0.45;78.50
71128;SHT30;59249;59.736;30.568;2024-03-07T14:32:22;-0.49;78.30
71128;SHT30;59249;59.736;30.568;2024-03-07T14:35:07;-0.46;78.33
71128;SHT30;59249;59.736;30.568;2024-03-07T14:37:50;-0.45;78.51
71128;SHT30;59249;59.736;30.568;2024-03-07T14:40:31;-0.47;78.81
71128;SHT30;59249;59.736;30.568;2024-03-07T14:43:04;-0.41;78.53
71128;SHT30;59249;59.736;30.568;2024-03-07T14:45:40;-0.46;78.51
71128;SHT30;59249;59.736;30.568;2024-03-07T14:48:15;-0.44;78.56
71128;SHT30;59249;59.736;30.568;2024-03-07T14:50:47;-0.45;78.61
71128;SHT30;59249;59.736;30.568;2024-03-07T14:53:18;-0.61;78.77
71128;SHT30;59249;59.736;30.568;2024-03-07T14:55:49;-0.48;78.82
71128;SHT30;59249;59.736;30.568;2024-03-07T14:58:20;-0.55;79.00
71128;SHT30;59249;59.736;30.568;2024-03-07T15:00:49;-0.53;79.04
71128;SHT30;59249;59.736;30.568;2024-03-07T15:03:27;-0.57;78.91
71128;SHT30;59249;59.736;30.568;2024-03-07T15:05:57;-0.55;79.04
71128;SHT30;59249;59.736;30.568;2024-03-07T15:08:27;-0.57;78.89
71128;SHT30;59249;59.736;30.568;2024-03-07T15:11:09;-0.54;78.98
71128;SHT30;59249;59.736;30.568;2024-03-07T15:13:45;-0.50;78.93
71128;SHT30;59249;59.736;30.568;2024-03-07T15:16:15;-0.57;79.02
71128;SHT30;59249;59.736;30.568;2024-03-07T15:19:03;-0.58;78.98
71128;SHT30;59249;59.736;30.568;2024-03-07T15:21:32;-0.49;78.94
71128;SHT30;59249;59.736;30.568;2024-03-07T15:24:02;-0.60;78.94
71128;SHT30;59249;59.736;30.568;2024-03-07T15:26:35;-0.64;79.09
71128;SHT30;59249;59.736;30.568;2024-03-07T15:29:06;-0.64;79.13
71128;SHT30;59249;59.736;30.568;2024-03-07T15:31:41;-0.73;79.12
71128;SHT30;59249;59.736;30.568;2024-03-07T15:34:13;-0.78;79.78
71128;SHT30;59249;59.736;30.568;2024-03-07T15:36:43;-0.80;79.66
71128;SHT30;59249;59.736;30.568;2024-03-07T15:39:15;-0.65;79.50
71128;SHT30;59249;59.736;30.568;2024-03-07T15:41:56;-0.56;79.65
71128;SHT30;59249;59.736;30.568;2024-03-07T15:44:33;-0.76;79.65
71128;SHT30;59249;59.736;30.568;2024-03-07T15:47:08;-0.69;79.82
71128;SHT30;59249;59.736;30.568;2024-03-07T15:49:40;-0.79;79.71
71128;SHT30;59249;59.736;30.568;2024-03-07T15:52:09;-0.67;79.68
71128;SHT30;59249;59.736;30.568;2024-03-07T15:54:44;-0.72;79.55
71128;SHT30;59249;59.736;30.568;2024-03-07T15:57:14;-0.66;79.61
71128;SHT30;59249;59.736;30.568;2024-03-07T15:59:43;-0.77;79.66
71128;SHT30;59249;59.736;30.568;2024-03-07T16:02:13;-0.84;80.00
71128;SHT30;59249;59.736;30.568;2024-03-07T16:04:44;-0.86;80.08
71128;SHT30;59249;59.736;30.568;2024-03-07T16:07:14;-0.89;80.07
71128;SHT30;59249;59.736;30.568;2024-03-07T16:09:43;-0.76;80.05
71128;SHT30;59249;59.736;30.568;2024-03-07T16:12:12;-0.76;80.02
71128;SHT30;59249;59.736;30.568;2024-03-07T16:14:41;-0.73;80.05